• Join FlightAware (Why Join?)
  • Login
  • US Flag 
11:21AM EDT


 

Airport Tracker/Info


-or-


 

Live Flight TrackerFlight Track Log ✈ UAL289 ✈ 26-Apr-2013 ✈ KDEN - KSAN

Flight Track Log - Related Links

Times and Time Zones

All times are in EDT time to prevent confusion due to time zone crossing. See the UAL289 flight status page for this flight to view local times or setup timezone preferences in your user account.

Time Position Orientation Groundspeed Altitude Reporting Facility
EDT Latitude Longitude Course Direction KTS MPH feet Rate Location/Type
10:18PM 39.9500 -104.7167 270° West 240 276 8,200  Level Denver TRACON
10:19PM 40.0167 -104.7500 339° North 292 336 10,500 2,160 Climbing Denver TRACON
10:20PM 39.7310 -105.0525 245° Southwest  Level FlightAware Approximate
10:20PM 40.0428 -104.7819 317° Northwest 290 334 11,300  Level Denver Center
10:21PM 39.6852 -105.1783 245° Southwest  Level FlightAware Approximate
10:21PM 40.0392 -104.9089 268° West 344 396 14,000  Level Denver Center
10:22PM 39.6442 -105.3063 243° Southwest  Level FlightAware Approximate
10:22PM 39.9733 -105.0047 228° Southwest 361 415 17,300  Level Denver Center
10:23PM 39.6000 -105.4313 270° West  Level FlightAware Approximate
10:23PM 39.9111 -105.1142 233° Southwest 356 410 20,000  Level Denver Center
10:24PM 39.8631 -105.2314 242° Southwest 368 423 22,000 2,040 Climbing Denver Center
10:25PM 39.8081 -105.3656 242° Southwest 388 447 24,300 1,920 Climbing Denver Center
10:26PM 39.7611 -105.4800 242° Southwest 399 459 26,000 1,680 Climbing Denver Center
10:27PM 39.6972 -105.6356 242° Southwest 420 483 27,800 1,620 Climbing Denver Center
10:28PM 39.6392 -105.7733 241° Southwest 429 494 29,400 1,440 Climbing Denver Center
10:29PM 39.5828 -105.9139 243° Southwest 434 499 30,800 1,200 Climbing Denver Center
10:30PM 39.5217 -106.0592 241° Southwest 451 519 31,900 1,200 Climbing Denver Center
10:31PM 39.4550 -106.2181 242° Southwest 466 536 33,400 960 Climbing Denver Center
10:32PM 39.3892 -106.3739 241° Southwest 469 540 34,000 240 Climbing Denver Center
10:33PM 39.3286 -106.5172 241° Southwest 474 545 34,000  Level Denver Center
10:34PM 39.2669 -106.6589 241° Southwest 473 544 34,000  Level Denver Center
10:35PM 39.1847 -106.8128 235° Southwest 468 539 34,000  Level Denver Center
10:36PM 39.1033 -106.9372 230° Southwest 473 544 34,000  Level Denver Center
10:37PM 39.0092 -107.0811 230° Southwest 469 540 34,000  Level Denver Center
10:38PM 38.9289 -107.2039 230° Southwest 469 540 34,000  Level Denver Center
10:39PM 38.8386 -107.3444 231° Southwest 458 527 34,000  Level Denver Center
10:40PM 38.7589 -107.4667 230° Southwest 463 533 34,000 120 Level Denver Center
10:41PM 38.6850 -107.5944 233° Southwest 465 535 34,300 780 Climbing Denver Center
10:42PM 38.6056 -107.7492 237° Southwest 466 536 35,600 780 Climbing Denver Center
10:43PM 38.5386 -107.8839 238° Southwest 466 536 36,000 180 Climbing Denver Center
10:44PM 38.4603 -108.0367 237° Southwest 461 531 36,000  Level Denver Center
10:45PM 38.3928 -108.1678 237° Southwest 461 531 36,000  Level Denver Center
10:46PM 38.3256 -108.2961 236° Southwest 457 526 36,000  Level Denver Center
10:47PM 38.2458 -108.4472 236° Southwest 458 527 36,000  Level Denver Center
10:48PM 38.1781 -108.5767 236° Southwest 458 527 36,000  Level Denver Center
10:49PM 38.0989 -108.7258 236° Southwest 455 524 36,000  Level Denver Center
10:50PM 38.0269 -108.8617 236° Southwest 459 528 36,000  Level Denver Center
10:52PM 37.9581 -108.9867 235° Southwest 455 524 36,000  Level Denver Center
10:53PM 37.8783 -109.1375 236° Southwest 461 531 36,000  Level Denver Center
10:54PM 37.8097 -109.2644 236° Southwest 459 528 36,000  Level Denver Center
10:55PM 37.7289 -109.4139 236° Southwest 462 532 36,000  Level Denver Center
10:56PM 37.6603 -109.5406 236° Southwest 459 528 36,000  Level Denver Center
10:57PM 37.5908 -109.6658 235° Southwest 457 526 36,000  Level Denver Center
10:58PM 37.5100 -109.8128 235° Southwest 457 526 36,000  Level Denver Center
10:59PM 37.4419 -109.9369 235° Southwest 453 521 36,000  Level Denver Center
11:00PM 37.3631 -110.0811 235° Southwest 449 517 36,000  Level Denver Center
11:01PM 37.2903 -110.2122 235° Southwest 451 519 36,000  Level Denver Center
11:02PM 37.2189 -110.3403 235° Southwest 447 514 36,000  Level Denver Center
11:03PM 37.1472 -110.4678 235° Southwest 445 512 36,000  Level Denver Center
11:04PM 37.0753 -110.5964 235° Southwest 449 517 36,000  Level Denver Center
11:05PM 37.0044 -110.7244 235° Southwest 450 518 36,000  Level Denver Center
11:06PM 36.9311 -110.8517 234° Southwest 450 518 36,000  Level Denver Center
11:07PM 36.8594 -110.9789 235° Southwest 449 517 36,000  Level Denver Center
11:08PM 36.7875 -111.1075 235° Southwest 451 519 36,000  Level Denver Center
11:09PM 36.7006 -111.2597 235° Southwest 450 518 36,000  Level Denver Center
11:10PM 36.6261 -111.3875 234° Southwest 451 519 36,000  Level Denver Center
11:11PM 36.5536 -111.5133 234° Southwest 448 516 36,000  Level Denver Center
11:12PM 36.4811 -111.6383 234° Southwest 447 514 36,000  Level Denver Center
11:13PM 36.3931 -111.7889 234° Southwest 447 514 36,000  Level Denver Center
11:14PM 36.3217 -111.9106 234° Southwest 440 506 36,000  Level Los Angeles Center
11:15PM 36.2492 -112.0353 234° Southwest 444 511 36,000  Level Los Angeles Center
11:16PM 36.1756 -112.1586 234° Southwest 446 513 36,000  Level Los Angeles Center
11:17PM 36.1017 -112.2833 234° Southwest 446 513 36,000  Level Los Angeles Center
11:18PM 36.0311 -112.4042 234° Southwest 436 502 36,000  Level Los Angeles Center
11:19PM 35.9572 -112.5272 233° Southwest 443 510 36,000  Level Los Angeles Center
11:20PM 35.8872 -112.6450 234° Southwest 443 510 36,000  Level Los Angeles Center
11:21PM 35.8022 -112.7881 234° Southwest 435 501 36,000  Level Los Angeles Center
11:22PM 35.7317 -112.9050 233° Southwest 431 496 36,000  Level Los Angeles Center
11:23PM 35.6619 -113.0203 233° Southwest 428 493 36,000  Level Los Angeles Center
11:24PM 35.5917 -113.1361 233° Southwest 424 488 36,000  Level Los Angeles Center
11:25PM 35.5206 -113.2550 234° Southwest 429 494 36,000  Level Los Angeles Center
11:26PM 35.4406 -113.3861 233° Southwest 421 484 36,000  Level Los Angeles Center
11:28PM 35.3711 -113.4997 233° Southwest 421 484 36,000  Level Los Angeles Center
11:29PM 35.3003 -113.6150 233° Southwest 426 490 36,000  Level Los Angeles Center
11:30PM 35.2283 -113.7325 233° Southwest 432 497 36,000 -180 Level Los Angeles Center
11:31PM 35.1556 -113.8503 233° Southwest 432 497 35,700 -720 Descending Los Angeles Center
11:32PM 35.0764 -113.9767 233° Southwest 432 497 34,600 -1,440 Descending Los Angeles Center
11:33PM 35.0033 -114.0936 233° Southwest 433 498 32,800 -1,500 Descending Los Angeles Center
11:34PM 34.9275 -114.2172 233° Southwest 451 519 31,600 -1,260 Descending Los Angeles Center
11:35PM 34.8367 -114.3622 233° Southwest 448 516 30,200 -840 Descending Los Angeles Center
11:36PM 34.7586 -114.4800 231° Southwest 446 513 30,000 -120 Descending Los Angeles Center
11:37PM 34.6683 -114.5872 224° Southwest 451 519 30,000  Level Los Angeles Center
11:38PM 34.5881 -114.6764 222° Southwest 441 507 30,000 -360 Level Los Angeles Center
11:39PM 34.4792 -114.8017 223° Southwest 449 517 29,300 -1,200 Descending Los Angeles Center
11:40PM 34.3894 -114.9031 223° Southwest 443 510 27,600 -1,500 Descending Los Angeles Center
11:41PM 34.3000 -115.0053 223° Southwest 443 510 26,300 -780 Descending Los Angeles Center
11:42PM 34.2111 -115.1039 223° Southwest 436 502 26,000 -180 Descending Los Angeles Center
11:43PM 34.1225 -115.2044 223° Southwest 438 504 26,000  Level Los Angeles Center
11:44PM 34.0350 -115.3022 223° Southwest 433 498 26,000  Level Los Angeles Center
11:45PM 33.9308 -115.4189 223° Southwest 429 494 26,000  Level Los Angeles Center
11:46PM 33.8261 -115.5347 223° Southwest 427 491 26,000  Level Los Angeles Center
11:47PM 33.7386 -115.6333 223° Southwest 429 494 26,000  Level Los Angeles Center
11:48PM 33.6481 -115.7314 222° Southwest 438 504 26,000 -360 Level Los Angeles Center
11:49PM 33.5739 -115.8436 232° Southwest 432 497 25,300 -1,020 Descending Los Angeles Center
11:50PM 33.5019 -115.9567 233° Southwest 425 489 24,000 -960 Descending Los Angeles Center
11:51PM 33.4128 -116.0461 220° Southwest 418 481 23,400 -1,200 Descending Los Angeles Center
11:52PM 33.3428 -116.1153 220° Southwest 414 476 21,600 -2,640 Descending Los Angeles Center
11:53PM 33.2200 -116.2364 220° Southwest 410 472 18,100 -2,820 Descending Los Angeles Center
11:54PM 33.1339 -116.3208 219° Southwest 405 466 15,800 -2,400 Descending Los Angeles Center
11:55PM 33.0489 -116.4033 219° Southwest 399 459 13,200 -1,860 Descending Los Angeles Center
11:57PM 32.9589 -116.4708 212° Southwest 377 434 12,000 -960 Descending Los Angeles Center
11:58PM 32.8747 -116.5200 206° Southwest 341 392 11,300 -1,080 Descending Los Angeles Center
11:59PM 32.8092 -116.6039 227° Southwest 316 364 9,900 -1,380 Descending Los Angeles Center
12:00AM 32.7694 -116.6892 241° Southwest 302 348 8,400 -1,380 Descending Los Angeles Center
12:01AM 32.7075 -116.7408 215° Southwest 276 318 7,100 -1,200 Descending Los Angeles Center
12:02AM 32.6494 -116.7892 215° Southwest 262 302 6,100 -960 Descending Los Angeles Center
12:03AM 32.6561 -116.8606 276° West 227 261 5,200 -720 Descending Los Angeles Center
12:03AM 32.6667 -116.9167 283° West 186 214 4,900 -840 Descending Southern California TRACON
12:04AM 32.6833 -116.9667 292° West 168 193 3,800 -1,200 Descending Southern California TRACON
12:05AM 32.6833 -117.0167 270° West 170 196 2,600 -900 Descending Southern California TRACON
12:06AM 32.7000 -117.0667 292° West 157 181 2,000 -720 Descending Southern California TRACON
12:07AM 32.7167 -117.1167 292° West 134 154 1,200 -780 Descending Southern California TRACON
12:08AM 32.7181 -117.1267 279° West 137 158 900 -600 Descending Los Angeles Center
12:09AM 32.7308 -117.1792 286° West 131 151 300 -540 Descending Los Angeles Center